Time;durP1;ratioP1;P1;durP2;ratioP2;P2;SDS_P1;SDS_P2;PMS_P1;PMS_P2;Temp;Humidity;BMP_temperature;BMP_pressure;BME280_temperature;BME280_humidity;BME280_pressure;Samples;Min_cycle;Max_cycle;Signal;HPM_P1;HPM_P2
2022/12/07 00:07:19;;;;;;;45.63;7.70;;;;;;;21.97;39.59;102207.00;21046874;28;20128;-62
2022/12/07 00:17:20;;;;;;;53.03;6.18;;;;;;;22.06;39.42;102205.44;21070499;28;20101;-62
2022/12/07 00:27:21;;;;;;;38.92;6.55;;;;;;;22.05;39.72;102210.19;21072814;28;20039;-62
2022/12/07 00:37:23;;;;;;;30.55;6.28;;;;;;;22.07;39.44;102204.34;21065301;28;20509;-59
2022/12/07 00:47:24;;;;;;;32.85;5.10;;;;;;;22.07;39.60;102213.53;21080307;28;20044;-60
2022/12/07 00:57:25;;;;;;;28.63;5.13;;;;;;;22.08;39.25;102218.03;21069249;28;20040;-62
2022/12/07 01:07:30;;;;;;;30.10;4.38;;;;;;;22.08;39.60;102197.66;21059583;28;20053;-62
2022/12/07 01:17:31;;;;;;;21.60;3.88;;;;;;;22.22;39.42;102204.59;21073767;28;20047;-61
2022/12/07 01:27:33;;;;;;;19.25;3.58;;;;;;;22.32;39.28;102227.00;21041622;28;20048;-62
2022/12/07 01:37:41;;;;;;;12.98;3.00;;;;;;;22.36;39.06;102215.31;21073363;28;20047;-61
2022/12/07 01:47:46;;;;;;;11.13;2.92;;;;;;;22.48;39.20;102210.47;21069049;28;20048;-61
2022/12/07 01:57:50;;;;;;;12.88;3.38;;;;;;;22.48;39.30;102190.94;21042729;28;20060;-62
2022/12/07 02:07:55;;;;;;;11.75;2.70;;;;;;;22.60;39.03;102213.97;21068117;28;20070;-62
2022/12/07 02:18:07;;;;;;;13.65;2.40;;;;;;;22.51;38.97;102194.03;21063547;28;20040;-62
2022/12/07 02:28:42;;;;;;;15.85;2.50;;;;;;;22.64;39.11;102205.91;21070981;28;20104;-62
2022/12/07 02:38:54;;;;;;;16.15;2.63;;;;;;;22.71;39.53;102217.69;21043157;28;20044;-62
2022/12/07 02:48:56;;;;;;;11.63;2.65;;;;;;;22.78;39.39;102213.59;21066313;28;20044;-62
2022/12/07 02:59:18;;;;;;;9.80;2.65;;;;;;;22.81;39.45;102204.69;21062223;28;20052;-62
2022/12/07 03:09:38;;;;;;;14.25;2.35;;;;;;;22.81;39.51;102179.56;21068153;28;20043;-63
2022/12/07 03:19:44;;;;;;;9.18;1.95;;;;;;;22.95;39.24;102180.00;21067527;28;20446;-62
2022/12/07 03:30:01;;;;;;;10.43;1.85;;;;;;;23.09;39.17;102199.94;21070382;28;20044;-63
2022/12/07 03:40:03;;;;;;;9.07;1.88;;;;;;;23.18;39.41;102205.91;21061555;28;20040;-61
2022/12/07 03:50:14;;;;;;;8.63;2.25;;;;;;;23.22;39.32;102202.31;21067188;28;20113;-61
2022/12/07 04:00:16;;;;;;;5.55;1.48;;;;;;;23.29;39.18;102202.09;21078626;28;20032;-61
2022/12/07 04:10:18;;;;;;;9.27;1.95;;;;;;;23.38;39.21;102188.47;21058264;28;20040;-61
2022/12/07 04:20:19;;;;;;;11.57;2.45;;;;;;;23.42;39.00;102186.84;21069444;28;20413;-61
2022/12/07 04:30:21;;;;;;;16.25;2.10;;;;;;;23.50;38.93;102191.91;21082816;28;20105;-61
2022/12/07 04:40:22;;;;;;;14.20;2.13;;;;;;;23.37;38.38;102170.00;21009974;28;20027;-61
2022/12/07 04:50:23;;;;;;;11.65;2.15;;;;;;;23.49;38.97;102170.66;21036096;28;20093;-61
2022/12/07 05:00:25;;;;;;;14.23;2.45;;;;;;;23.49;39.16;102173.47;21059840;28;20055;-61
2022/12/07 05:10:26;;;;;;;9.43;2.38;;;;;;;23.48;39.50;102152.22;21077360;28;20040;-61
2022/12/07 05:20:27;;;;;;;10.20;2.60;;;;;;;23.47;39.83;102158.94;21076261;28;20040;-62
2022/12/07 05:30:29;;;;;;;7.30;2.13;;;;;;;23.33;39.81;102120.28;21078981;28;20044;-61
2022/12/07 05:40:30;;;;;;;5.80;1.70;;;;;;;23.43;40.09;102130.69;21075099;28;20066;-61
2022/12/07 05:50:32;;;;;;;5.53;1.35;;;;;;;23.43;40.26;102132.66;21059355;28;20044;-61
2022/12/07 06:00:36;;;;;;;19.92;2.17;;;;;;;23.42;40.57;102133.75;21075050;28;20031;-61
2022/12/07 06:10:37;;;;;;;8.60;1.27;;;;;;;23.46;41.43;102132.97;21049233;28;20101;-63
2022/12/07 06:20:42;;;;;;;7.05;1.80;;;;;;;23.49;39.68;102139.94;21069050;28;20036;-62
2022/12/07 06:30:46;;;;;;;4.60;1.40;;;;;;;23.40;39.47;102124.78;21029783;28;20109;-62
2022/12/07 06:40:48;;;;;;;5.63;1.67;;;;;;;23.56;39.55;102151.72;21074174;28;20051;-62
2022/12/07 06:50:52;;;;;;;2.90;1.20;;;;;;;23.59;39.00;102156.75;21054184;28;20070;-62
2022/12/07 07:00:53;;;;;;;3.80;1.13;;;;;;;23.60;39.22;102164.06;20990995;28;20204;-62
2022/12/07 07:10:55;;;;;;;3.17;1.17;;;;;;;23.50;39.33;102152.78;21047609;28;20109;-62
2022/12/07 07:20:56;;;;;;;3.58;1.00;;;;;;;23.63;39.43;102191.44;21079767;28;20047;-62
2022/12/07 07:31:00;;;;;;;2.15;0.98;;;;;;;23.64;39.22;102192.28;21084015;28;20074;-62
2022/12/07 07:41:05;;;;;;;1.80;0.88;;;;;;;23.55;39.29;102166.81;21087348;28;20386;-62
2022/12/07 07:51:10;;;;;;;1.35;0.85;;;;;;;23.65;39.33;102182.84;21076780;28;20044;-62
2022/12/07 08:01:13;;;;;;;1.55;0.82;;;;;;;23.65;39.29;102189.25;21084657;28;20101;-62
2022/12/07 08:11:14;;;;;;;2.95;0.95;;;;;;;23.53;39.16;102160.63;21079807;28;20039;-62
2022/12/07 08:21:16;;;;;;;1.48;0.60;;;;;;;23.65;39.08;102180.88;21081740;28;20085;-62
2022/12/07 08:31:18;;;;;;;1.92;0.90;;;;;;;23.65;39.29;102166.06;21070534;28;20052;-62
2022/12/07 08:41:20;;;;;;;1.92;0.93;;;;;;;23.66;39.02;102153.78;21080649;28;20044;-62
2022/12/07 08:51:22;;;;;;;2.17;0.68;;;;;;;23.66;39.24;102151.81;21081434;28;20066;-62
2022/12/07 09:01:26;;;;;;;2.38;1.00;;;;;;;23.63;39.21;102157.06;21080929;28;20474;-62
2022/12/07 09:11:28;;;;;;;3.00;1.10;;;;;;;23.62;39.42;102150.63;21079104;28;20047;-62
2022/12/07 09:21:30;;;;;;;1.10;0.60;;;;;;;23.58;39.46;102146.69;21075810;28;20105;-62
2022/12/07 09:31:31;;;;;;;1.38;0.50;;;;;;;23.61;39.52;102157.34;21074926;28;20445;-62
2022/12/07 09:41:41;;;;;;;0.90;0.50;;;;;;;23.59;39.24;102151.16;21068081;28;20093;-62
2022/12/07 09:51:43;;;;;;;1.77;1.23;;;;;;;23.57;39.59;102145.03;21071619;28;20449;-62
2022/12/07 10:01:47;;;;;;;0.90;0.60;;;;;;;23.58;39.23;102138.31;21069450;28;20051;-62
2022/12/07 10:12:09;;;;;;;1.00;0.60;;;;;;;23.50;39.28;102124.84;21070269;28;20052;-62
2022/12/07 10:22:13;;;;;;;0.65;0.50;;;;;;;23.53;39.38;102099.19;21055794;28;20044;-62
2022/12/07 10:32:14;;;;;;;0.98;0.65;;;;;;;23.53;39.29;102110.34;21068606;28;20035;-62
2022/12/07 10:42:19;;;;;;;0.50;0.40;;;;;;;23.51;39.44;102120.97;21071917;28;20089;-62
2022/12/07 10:53:00;;;;;;;1.40;0.80;;;;;;;23.43;39.39;102113.09;21075006;28;20044;-62
2022/12/07 11:03:31;;;;;;;0.75;0.50;;;;;;;23.42;38.97;102133.75;21063300;28;20073;-62
2022/12/07 11:13:53;;;;;;;0.70;0.50;;;;;;;23.40;39.22;102119.22;21078707;28;20368;-62
2022/12/07 11:24:17;;;;;;;1.33;0.50;;;;;;;23.37;39.03;102126.19;21075707;28;20059;-62
2022/12/07 11:34:37;;;;;;;1.95;0.70;;;;;;;23.38;39.21;102111.09;21088106;28;20048;-62
2022/12/07 11:44:56;;;;;;;1.52;0.63;;;;;;;23.33;39.43;102111.91;21081621;28;20403;-63
2022/12/07 11:55:00;;;;;;;0.60;0.60;;;;;;;23.34;39.57;102116.38;21084183;28;20200;-62
2022/12/07 12:05:18;;;;;;;1.25;0.63;;;;;;;23.29;39.18;102121.09;21069416;28;20365;-62
2022/12/07 12:15:56;;;;;;;3.13;0.88;;;;;;;23.30;38.98;102132.00;21076406;28;20113;-62
2022/12/07 12:26:01;;;;;;;10.25;0.70;;;;;;;23.29;40.00;102124.72;21054385;28;20783;-62
2022/12/07 12:36:24;;;;;;;1.42;0.60;;;;;;;23.22;39.81;102152.03;21039431;28;20499;-64
2022/12/07 12:46:33;;;;;;;1.50;0.68;;;;;;;23.25;39.66;102159.88;21030998;28;20040;-62
2022/12/07 12:57:03;;;;;;;3.00;0.52;;;;;;;23.25;39.35;102151.50;21067967;28;20043;-61
2022/12/07 13:07:10;;;;;;;2.45;0.55;;;;;;;23.20;39.62;102112.38;21060469;28;20435;-61
2022/12/07 13:17:33;;;;;;;1.10;0.60;;;;;;;23.37;39.36;102156.03;21076302;28;20088;-61
2022/12/07 13:27:40;;;;;;;4.07;0.80;;;;;;;23.42;39.46;102140.19;21076171;28;20044;-62
2022/12/07 13:37:44;;;;;;;2.80;0.85;;;;;;;23.36;39.92;102121.69;21065086;28;20097;-62
2022/12/07 13:47:52;;;;;;;14.23;1.17;;;;;;;23.50;39.85;102142.47;21074195;28;20044;-62
2022/12/07 13:57:55;;;;;;;4.57;1.13;;;;;;;23.46;39.53;102134.88;21037249;28;20480;-62
2022/12/07 14:08:00;;;;;;;6.07;1.20;;;;;;;23.52;39.11;102136.63;21025215;28;20048;-62
2022/12/07 14:18:04;;;;;;;1.60;0.85;;;;;;;23.55;39.31;102114.56;21073131;28;20105;-63
2022/12/07 14:28:26;;;;;;;4.68;1.25;;;;;;;23.51;39.14;102132.97;21074293;28;20044;-64
2022/12/07 14:38:27;;;;;;;8.38;1.42;;;;;;;23.56;39.31;102099.47;21076044;28;20434;-62
2022/12/07 14:48:31;;;;;;;3.85;1.15;;;;;;;23.56;39.23;102095.84;21075463;28;20101;-62
2022/12/07 14:58:33;;;;;;;5.40;1.40;;;;;;;23.56;39.42;102104.22;21075003;28;20032;-62
2022/12/07 15:08:37;;;;;;;2.42;1.30;;;;;;;23.56;39.60;102095.84;21074520;28;20044;-62
2022/12/07 15:18:38;;;;;;;2.42;1.10;;;;;;;23.51;39.32;102079.91;21073995;28;20113;-61
2022/12/07 15:28:42;;;;;;;2.17;1.40;;;;;;;23.47;39.07;102066.75;21073210;28;20090;-61
2022/12/07 15:38:43;;;;;;;2.33;1.42;;;;;;;23.53;39.43;102068.44;21074888;28;20044;-61
2022/12/07 15:48:45;;;;;;;1.33;0.98;;;;;;;23.44;39.24;102047.72;21088103;28;20043;-61
2022/12/07 15:58:47;;;;;;;2.22;1.30;;;;;;;23.49;39.22;102043.00;21086922;28;20118;-62
2022/12/07 16:08:48;;;;;;;1.50;0.82;;;;;;;23.51;39.13;102039.94;21086145;28;20036;-62
2022/12/07 16:18:50;;;;;;;3.75;1.55;;;;;;;23.50;39.19;102029.88;21085053;28;20040;-61
2022/12/07 16:28:57;;;;;;;2.00;1.42;;;;;;;23.47;39.49;102017.28;21085058;28;20055;-61
2022/12/07 16:39:00;;;;;;;2.22;1.42;;;;;;;23.47;39.47;102014.50;21083812;28;20451;-61
2022/12/07 16:49:01;;;;;;;1.83;1.40;;;;;;;23.47;39.18;102016.47;21081677;28;20036;-61
2022/12/07 16:59:03;;;;;;;2.13;1.40;;;;;;;23.45;39.44;101988.78;21081651;28;20036;-63
2022/12/07 17:09:08;;;;;;;3.00;1.80;;;;;;;23.41;39.64;101992.38;21081046;28;20055;-61
2022/12/07 17:19:12;;;;;;;2.50;1.63;;;;;;;23.40;39.49;101966.41;21080964;28;20047;-61
2022/12/07 17:29:17;;;;;;;2.97;1.80;;;;;;;23.39;39.71;101972.28;21079684;28;20048;-61
2022/12/07 17:39:18;;;;;;;3.05;1.90;;;;;;;23.37;39.28;101978.16;21078907;28;20044;-62
2022/12/07 17:49:23;;;;;;;3.13;1.90;;;;;;;23.38;39.51;101959.44;21078201;28;20043;-62
2022/12/07 17:59:25;;;;;;;2.97;2.00;;;;;;;23.37;39.50;101952.16;21076554;28;20545;-61
2022/12/07 18:09:28;;;;;;;2.53;1.98;;;;;;;23.34;39.16;101943.22;21066830;28;20113;-61
2022/12/07 18:19:30;;;;;;;2.50;2.10;;;;;;;23.30;39.52;101925.31;20996265;28;20032;-61
2022/12/07 18:29:34;;;;;;;2.90;2.30;;;;;;;23.28;39.70;101902.44;20991753;28;20453;-62
2022/12/07 18:39:35;;;;;;;5.82;2.50;;;;;;;23.28;39.78;101924.78;20990330;28;20475;-66
2022/12/07 18:49:37;;;;;;;7.03;2.50;;;;;;;23.18;39.68;101901.53;21943550;22;20445;-62
2022/12/07 18:59:48;;;;;;;13.40;3.00;;;;;;;23.12;39.56;101892.31;20904674;28;20053;-63
2022/12/07 19:09:50;;;;;;;8.65;3.05;;;;;;;23.01;39.70;101849.56;20907484;28;20107;-64
2022/12/07 19:19:51;;;;;;;30.25;4.32;;;;;;;23.03;39.93;101868.81;20918734;28;20076;-64
2022/12/07 19:29:52;;;;;;;12.40;2.72;;;;;;;23.08;39.84;101855.72;20910365;28;20107;-65
2022/12/07 19:39:55;;;;;;;11.40;3.30;;;;;;;23.08;40.11;101866.03;20839262;28;20503;-65
2022/12/07 19:49:56;;;;;;;9.93;3.55;;;;;;;23.08;39.83;101843.69;20838171;28;20049;-65
2022/12/07 20:00:00;;;;;;;10.85;3.15;;;;;;;23.08;39.96;101871.63;20836804;28;20171;-64
2022/12/07 20:10:02;;;;;;;55.65;7.03;;;;;;;23.02;40.42;101889.47;20835768;28;20068;-64
2022/12/07 20:20:04;;;;;;;27.50;4.80;;;;;;;23.04;40.23;101892.81;20836040;28;20484;-65
2022/12/07 20:30:06;;;;;;;40.67;6.50;;;;;;;23.03;40.17;101882.78;20834304;28;20033;-64
2022/12/07 20:40:08;;;;;;;27.60;5.55;;;;;;;23.06;40.00;101896.19;20834317;28;20438;-62
2022/12/07 20:50:09;;;;;;;21.60;5.55;;;;;;;23.06;39.59;101885.03;20833742;28;20068;-64
2022/12/07 21:00:14;;;;;;;18.90;5.00;;;;;;;23.10;39.41;101891.75;20833377;28;20037;-64
2022/12/07 21:10:15;;;;;;;8.70;4.63;;;;;;;23.12;39.54;101878.34;20833059;28;20115;-64
2022/12/07 21:20:17;;;;;;;32.67;6.43;;;;;;;23.16;39.90;101912.97;20831438;28;20083;-63
2022/12/07 21:30:18;;;;;;;30.13;5.47;;;;;;;23.17;40.36;101903.50;20829733;28;20119;-64
2022/12/07 21:40:19;;;;;;;30.80;7.13;;;;;;;23.20;40.30;101886.19;20829929;28;20037;-64
2022/12/07 21:50:21;;;;;;;28.13;5.80;;;;;;;23.20;40.46;101891.78;20829361;28;20492;-64
2022/12/07 22:00:23;;;;;;;31.10;6.68;;;;;;;23.22;40.69;101909.09;20829365;28;20034;-64
2022/12/07 22:10:28;;;;;;;24.63;5.75;;;;;;;23.24;40.69;101914.41;20826682;28;20574;-64
2022/12/07 22:20:29;;;;;;;21.35;6.85;;;;;;;23.25;40.67;101891.78;20827651;28;20026;-65
2022/12/07 22:30:30;;;;;;;112.22;11.32;;;;;;;23.27;41.89;101920.28;20819276;28;20117;-63
2022/12/07 22:40:32;;;;;;;65.45;10.15;;;;;;;23.26;42.29;101924.19;20826626;28;20025;-63
2022/12/07 22:50:34;;;;;;;52.58;8.73;;;;;;;23.26;42.21;101918.59;20831701;28;20050;-63
2022/12/07 23:00:35;;;;;;;153.77;16.58;;;;;;;23.28;41.80;101921.97;20834396;28;20049;-64
2022/12/07 23:10:41;;;;;;;73.72;11.48;;;;;;;23.28;41.51;101899.63;20803594;28;20046;-63
2022/12/07 23:20:46;;;;;;;71.60;11.40;;;;;;;23.29;41.23;101901.31;20838511;28;20450;-64
2022/12/07 23:30:47;;;;;;;76.22;12.15;;;;;;;23.34;41.44;101931.22;20836017;28;20085;-63
2022/12/07 23:40:48;;;;;;;75.88;10.30;;;;;;;23.35;41.68;101944.06;20825919;28;20315;-63
2022/12/07 23:50:50;;;;;;;66.55;11.63;;;;;;;23.36;41.73;101950.47;20800640;28;20102;-62
